createdAt,value
2023-03-05T00:02:42.634Z,-3.92
2023-03-05T00:05:27.266Z,-3.91
2023-03-05T00:08:12.043Z,-3.96
2023-03-05T00:11:01.769Z,-3.91
2023-03-05T00:13:47.072Z,-3.94
2023-03-05T00:16:32.117Z,-3.99
2023-03-05T00:19:16.644Z,-4.03
2023-03-05T00:22:01.534Z,-3.99
2023-03-05T00:24:50.414Z,-4.02
2023-03-05T00:27:35.111Z,-4.04
2023-03-05T00:30:19.969Z,-4.05
2023-03-05T00:33:04.979Z,-4.08
2023-03-05T00:35:49.422Z,-4.08
2023-03-05T00:38:35.295Z,-4.08
2023-03-05T00:41:20.577Z,-4.13
2023-03-05T00:44:05.199Z,-4.17
2023-03-05T00:46:49.930Z,-4.19
2023-03-05T00:49:35.016Z,-4.13
2023-03-05T00:52:19.797Z,-4.07
2023-03-05T00:55:04.746Z,-4.00
2023-03-05T00:57:49.459Z,-3.94
2023-03-05T01:00:34.311Z,-3.87
2023-03-05T01:03:19.243Z,-3.80
2023-03-05T01:06:10.238Z,-3.78
2023-03-05T01:08:56.453Z,-3.70
2023-03-05T01:11:41.672Z,-3.67
2023-03-05T01:14:27.708Z,-3.68
2023-03-05T01:17:12.660Z,-3.62
2023-03-05T01:19:57.586Z,-3.63
2023-03-05T01:22:42.560Z,-3.65
2023-03-05T01:25:27.639Z,-3.66
2023-03-05T01:28:12.804Z,-3.65
2023-03-05T01:30:57.952Z,-3.65
2023-03-05T01:33:42.358Z,-3.69
2023-03-05T01:36:27.471Z,-3.66
2023-03-05T01:39:12.853Z,-3.69
2023-03-05T01:41:57.998Z,-3.67
2023-03-05T01:45:06.596Z,-3.69
2023-03-05T01:47:51.485Z,-3.69
2023-03-05T01:50:36.267Z,-3.73
2023-03-05T01:53:21.128Z,-3.76
2023-03-05T01:56:06.260Z,-3.80
2023-03-05T01:58:53.136Z,-3.84
2023-03-05T02:01:42.264Z,-3.88
2023-03-05T02:04:33.751Z,-3.94
2023-03-05T02:07:18.746Z,-3.97
2023-03-05T02:10:25.141Z,-4.06
2023-03-05T02:13:13.788Z,-4.12
2023-03-05T02:16:00.847Z,-4.19
2023-03-05T02:18:45.687Z,-4.18
2023-03-05T02:21:42.213Z,-4.26
2023-03-05T02:24:36.538Z,-4.30
2023-03-05T02:27:34.009Z,-4.37
2023-03-05T02:30:19.690Z,-4.45
2023-03-05T02:33:05.301Z,-4.49
2023-03-05T02:35:50.462Z,-4.50
2023-03-05T02:38:35.596Z,-4.55
2023-03-05T02:41:20.371Z,-4.58
2023-03-05T02:44:05.800Z,-4.58
2023-03-05T02:46:50.897Z,-4.57
2023-03-05T02:49:36.842Z,-4.65
2023-03-05T02:52:22.724Z,-4.62
2023-03-05T02:55:08.914Z,-4.65
2023-03-05T02:57:54.039Z,-4.68
2023-03-05T03:05:26.552Z,-4.91
2023-03-05T03:08:11.397Z,-5.01
2023-03-05T03:10:56.523Z,-5.05
2023-03-05T03:13:41.872Z,-5.14
2023-03-05T03:16:26.862Z,-5.18
2023-03-05T03:19:11.934Z,-5.21
2023-03-05T03:21:56.726Z,-5.22
2023-03-05T03:24:42.614Z,-5.26
2023-03-05T03:27:27.737Z,-5.29
2023-03-05T03:30:13.561Z,-5.30
2023-03-05T03:32:58.281Z,-5.28
2023-03-05T03:35:43.128Z,-5.32
2023-03-05T03:38:27.712Z,-5.30
2023-03-05T03:41:12.272Z,-5.39
2023-03-05T03:43:57.167Z,-5.40
2023-03-05T03:46:41.743Z,-5.38
2023-03-05T03:49:27.089Z,-5.42
2023-03-05T03:52:11.717Z,-5.45
2023-03-05T03:55:00.793Z,-5.49
2023-03-05T03:57:45.655Z,-5.55
2023-03-05T04:00:30.140Z,-5.55
2023-03-05T04:03:14.909Z,-5.60
2023-03-05T04:05:59.662Z,-5.60
2023-03-05T04:08:44.445Z,-5.56
2023-03-05T04:11:29.573Z,-5.62
2023-03-05T04:14:14.653Z,-5.60
2023-03-05T04:16:59.636Z,-5.65
2023-03-05T04:19:44.787Z,-5.65
2023-03-05T04:22:29.788Z,-5.67
2023-03-05T04:25:14.675Z,-5.69
2023-03-05T04:27:59.962Z,-5.72
2023-03-05T04:30:44.638Z,-5.75
2023-03-05T04:33:30.546Z,-5.77
2023-03-05T04:36:15.490Z,-5.82
2023-03-05T04:39:00.419Z,-5.85
2023-03-05T04:41:44.982Z,-5.86
2023-03-05T04:44:29.536Z,-5.85
2023-03-05T04:47:15.191Z,-5.80
2023-03-05T04:50:00.228Z,-5.84
2023-03-05T04:52:45.306Z,-5.82
2023-03-05T04:55:30.358Z,-5.81
2023-03-05T04:58:15.289Z,-5.80
2023-03-05T05:01:02.168Z,-5.78
2023-03-05T05:03:47.572Z,-5.79
2023-03-05T05:06:32.173Z,-5.74
2023-03-05T05:09:17.571Z,-5.64
2023-03-05T05:12:02.213Z,-5.58
2023-03-05T05:14:47.128Z,-5.50
2023-03-05T05:17:32.449Z,-5.45
2023-03-05T05:20:17.234Z,-5.37
2023-03-05T05:23:01.989Z,-5.39
2023-03-05T05:25:55.950Z,-5.38
2023-03-05T05:28:43.149Z,-5.39
2023-03-05T05:31:27.940Z,-5.37
2023-03-05T05:34:12.481Z,-5.25
2023-03-05T05:36:57.486Z,-5.13
2023-03-05T05:39:42.495Z,-4.97
2023-03-05T05:42:28.818Z,-4.84
2023-03-05T05:45:13.945Z,-4.72
2023-03-05T05:47:58.403Z,-4.69
2023-03-05T05:50:43.543Z,-4.45
2023-03-05T05:53:28.106Z,-4.39
2023-03-05T05:56:14.102Z,-4.35
2023-03-05T05:58:59.227Z,-4.21
2023-03-05T06:01:44.183Z,-4.16
2023-03-05T06:04:29.605Z,-4.09
2023-03-05T06:07:13.945Z,-4.01
2023-03-05T06:09:58.973Z,-3.95
2023-03-05T06:12:44.330Z,-3.87
2023-03-05T06:15:29.359Z,-3.84
2023-03-05T06:18:14.157Z,-3.72
2023-03-05T06:21:05.150Z,-3.58
2023-03-05T06:23:50.721Z,-3.41
2023-03-05T06:26:35.444Z,-3.71
2023-03-05T06:29:20.348Z,-3.65
2023-03-05T06:32:05.275Z,-3.64
2023-03-05T06:34:50.110Z,-3.69
2023-03-05T06:37:34.850Z,-3.35
2023-03-05T06:40:19.899Z,-3.28
2023-03-05T06:43:04.766Z,-3.03
2023-03-05T06:45:49.439Z,-2.72
2023-03-05T06:48:34.744Z,-2.97
2023-03-05T06:51:25.684Z,-2.75
2023-03-05T06:54:13.705Z,-2.62
2023-03-05T06:56:58.659Z,-2.75
2023-03-05T06:59:43.832Z,-2.85
2023-03-05T07:02:28.708Z,-2.84
2023-03-05T07:05:13.612Z,-2.52
2023-03-05T07:07:58.239Z,-2.69
2023-03-05T07:10:43.757Z,-2.29
2023-03-05T07:13:29.035Z,-2.05
2023-03-05T07:16:20.200Z,-1.98
2023-03-05T07:19:06.889Z,-1.95
2023-03-05T07:21:51.938Z,-2.03
2023-03-05T07:24:37.018Z,-1.71
2023-03-05T07:27:24.824Z,-1.95
2023-03-05T07:30:10.310Z,-2.13
2023-03-05T07:32:55.052Z,-1.86
2023-03-05T07:35:40.828Z,-1.72
2023-03-05T07:38:25.941Z,-1.63
2023-03-05T07:41:12.811Z,-1.68
2023-03-05T07:43:57.604Z,-1.23
2023-03-05T07:46:43.265Z,-1.06
2023-03-05T07:49:28.213Z,-0.89
2023-03-05T07:52:13.070Z,-0.72
2023-03-05T07:54:58.216Z,-0.85
2023-03-05T07:57:42.825Z,-0.58
2023-03-05T08:00:27.897Z,-0.63
2023-03-05T08:03:12.390Z,-0.21
2023-03-05T08:05:57.241Z,-0.46
2023-03-05T08:08:42.068Z,-0.43
2023-03-05T08:11:28.142Z,-0.17
2023-03-05T08:14:12.901Z,-0.36
2023-03-05T08:16:57.654Z,-0.51
2023-03-05T08:19:42.345Z,-0.65
2023-03-05T08:22:26.894Z,-0.58
2023-03-05T08:25:12.646Z,-0.26
2023-03-05T08:27:57.587Z,-0.80
2023-03-05T08:30:42.357Z,-0.61
2023-03-05T08:33:27.027Z,-0.44
2023-03-05T08:36:12.577Z,0.19
2023-03-05T08:38:59.003Z,0.46
2023-03-05T08:41:43.965Z,0.14
2023-03-05T08:44:29.210Z,0.06
2023-03-05T08:47:13.767Z,-0.39
2023-03-05T08:49:58.719Z,-0.53
2023-03-05T08:52:44.005Z,-0.40
2023-03-05T08:55:28.610Z,-0.28
2023-03-05T08:58:14.096Z,-0.01
2023-03-05T09:00:58.788Z,-0.06
2023-03-05T09:03:43.866Z,-0.25
2023-03-05T09:06:29.012Z,0.19
2023-03-05T09:09:13.635Z,0.31
2023-03-05T09:11:59.517Z,0.46
2023-03-05T09:14:44.244Z,-0.16
2023-03-05T09:17:29.298Z,0.51
2023-03-05T09:20:16.550Z,-0.03
2023-03-05T09:23:01.616Z,0.30
2023-03-05T09:25:46.615Z,0.58
2023-03-05T09:28:31.200Z,0.30
2023-03-05T09:31:15.923Z,0.83
2023-03-05T09:34:00.591Z,1.43
2023-03-05T09:36:45.290Z,1.16
2023-03-05T09:39:29.857Z,0.69
2023-03-05T09:42:36.102Z,1.03
2023-03-05T09:45:38.932Z,1.34
2023-03-05T09:48:46.047Z,1.69
2023-03-05T09:51:35.876Z,1.72
2023-03-05T09:54:40.689Z,1.90
2023-03-05T09:57:38.860Z,2.19
2023-03-05T10:00:40.913Z,1.69
2023-03-05T10:03:31.625Z,0.81
2023-03-05T10:06:26.029Z,1.11
2023-03-05T10:09:10.710Z,1.93
2023-03-05T10:11:55.401Z,2.30
2023-03-05T10:14:41.267Z,2.22
2023-03-05T10:17:38.262Z,2.10
2023-03-05T10:20:48.477Z,1.72
2023-03-05T10:24:03.216Z,1.85
2023-03-05T10:27:20.764Z,1.71
2023-03-05T10:30:37.823Z,2.27
2023-03-05T10:33:35.564Z,2.52
2023-03-05T10:36:46.149Z,3.49
2023-03-05T10:40:09.350Z,2.86
2023-03-05T10:42:53.886Z,2.58
2023-03-05T10:45:51.540Z,2.05
2023-03-05T10:48:38.441Z,2.35
2023-03-05T10:51:53.980Z,2.11
2023-03-05T10:54:42.082Z,3.18
2023-03-05T10:57:31.102Z,3.39
2023-03-05T11:00:25.380Z,4.03
2023-03-05T11:03:10.160Z,3.14
2023-03-05T11:06:00.982Z,3.45
2023-03-05T11:08:46.323Z,3.58
2023-03-05T11:11:32.571Z,4.15
2023-03-05T11:14:30.455Z,3.88
2023-03-05T11:17:31.746Z,3.23
2023-03-05T11:20:28.534Z,3.13
2023-03-05T11:23:13.516Z,2.86
2023-03-05T11:26:04.514Z,3.46
2023-03-05T11:28:52.515Z,3.66
2023-03-05T11:31:37.673Z,2.99
2023-03-05T11:34:29.573Z,2.92
2023-03-05T11:37:30.080Z,2.76
2023-03-05T11:40:22.289Z,3.03
2023-03-05T11:43:16.349Z,2.77
2023-03-05T11:46:02.688Z,2.39
2023-03-05T11:48:47.858Z,2.58
2023-03-05T11:51:42.936Z,3.50
2023-03-05T11:54:38.470Z,3.88
2023-03-05T11:57:25.347Z,3.72
2023-03-05T12:00:16.982Z,3.24
2023-03-05T12:03:13.677Z,3.04
2023-03-05T12:06:08.497Z,2.64
2023-03-05T12:08:59.756Z,3.03
2023-03-05T12:11:46.623Z,3.50
2023-03-05T12:15:00.691Z,3.29
2023-03-05T12:17:45.250Z,3.34
2023-03-05T12:20:46.628Z,4.04
2023-03-05T12:23:45.575Z,4.23
2023-03-05T12:26:52.022Z,4.27
2023-03-05T12:29:42.912Z,3.26
2023-03-05T12:32:34.592Z,3.06
2023-03-05T12:35:22.980Z,3.50
2023-03-05T12:38:28.561Z,3.48
2023-03-05T12:41:22.985Z,3.48
2023-03-05T12:44:08.039Z,3.80
2023-03-05T12:47:10.966Z,3.77
2023-03-05T12:49:56.635Z,3.87
2023-03-05T12:52:45.244Z,3.79
2023-03-05T12:56:24.141Z,4.10
2023-03-05T12:59:09.726Z,3.34
2023-03-05T13:01:58.286Z,3.39
2023-03-05T13:04:45.435Z,3.00
2023-03-05T13:07:30.540Z,2.97
2023-03-05T13:10:23.889Z,2.71
2023-03-05T13:13:14.700Z,3.14
2023-03-05T13:16:00.665Z,3.21
2023-03-05T13:18:48.312Z,3.82
2023-03-05T13:21:34.676Z,4.02
2023-03-05T13:24:19.783Z,3.55
2023-03-05T13:27:20.017Z,4.29
2023-03-05T13:30:05.998Z,4.29
2023-03-05T13:32:54.894Z,4.07
2023-03-05T13:35:45.025Z,4.43
2023-03-05T13:38:40.945Z,3.56
2023-03-05T13:41:27.483Z,3.97
2023-03-05T13:44:21.288Z,3.69
2023-03-05T13:47:18.992Z,3.97
2023-03-05T13:50:09.106Z,3.63
2023-03-05T13:52:54.216Z,3.28
2023-03-05T13:55:39.224Z,3.30
2023-03-05T13:58:44.051Z,3.18
2023-03-05T14:01:43.678Z,3.59
2023-03-05T14:04:42.428Z,3.38
2023-03-05T14:07:41.959Z,3.44
2023-03-05T14:10:34.001Z,3.29
2023-03-05T14:13:23.222Z,3.08
2023-03-05T14:16:13.608Z,2.75
2023-03-05T14:19:00.991Z,2.22
2023-03-05T14:21:50.208Z,1.61
2023-03-05T14:24:36.430Z,1.31
2023-03-05T14:27:21.825Z,0.86
2023-03-05T14:30:16.630Z,0.59
2023-03-05T14:33:02.430Z,0.38
2023-03-05T14:35:50.967Z,0.30
2023-03-05T14:38:40.001Z,0.38
2023-03-05T14:41:39.372Z,0.45
2023-03-05T14:44:25.700Z,0.33
2023-03-05T14:47:10.716Z,0.26
2023-03-05T14:49:55.460Z,0.33
2023-03-05T14:52:40.182Z,0.26
2023-03-05T14:55:29.661Z,0.34
2023-03-05T14:58:17.762Z,0.48
2023-03-05T15:01:02.475Z,0.64
2023-03-05T15:03:47.269Z,0.59
2023-03-05T15:06:38.783Z,0.58
2023-03-05T15:09:23.545Z,0.61
2023-03-05T15:12:11.549Z,0.49
2023-03-05T15:14:56.668Z,0.37
2023-03-05T15:17:46.608Z,0.33
2023-03-05T15:20:32.446Z,0.22
2023-03-05T15:23:17.725Z,0.14
2023-03-05T15:26:05.611Z,-0.04
2023-03-05T15:28:50.634Z,-0.14
2023-03-05T15:31:38.124Z,-0.21
2023-03-05T15:34:23.161Z,-0.27
2023-03-05T15:37:08.778Z,-0.36
2023-03-05T15:39:53.535Z,-0.40
2023-03-05T15:42:38.583Z,-0.45
2023-03-05T15:45:23.852Z,-0.52
2023-03-05T15:48:09.605Z,-0.55
2023-03-05T15:50:54.616Z,-0.65
2023-03-05T15:53:39.086Z,-0.73
2023-03-05T15:56:23.798Z,-0.83
2023-03-05T15:59:09.570Z,-0.87
2023-03-05T16:01:54.145Z,-1.01
2023-03-05T16:04:39.629Z,-1.05
2023-03-05T16:07:25.137Z,-1.15
2023-03-05T16:10:13.219Z,-1.20
2023-03-05T16:13:14.011Z,-1.19
2023-03-05T16:15:58.897Z,-1.27
2023-03-05T16:18:47.168Z,-1.33
2023-03-05T16:21:31.943Z,-1.40
2023-03-05T16:24:16.977Z,-1.49
2023-03-05T16:27:01.556Z,-1.52
2023-03-05T16:29:46.749Z,-1.54
2023-03-05T16:32:32.051Z,-1.57
2023-03-05T16:35:17.006Z,-1.58
2023-03-05T16:38:02.465Z,-1.51
2023-03-05T16:43:56.045Z,-1.68
2023-03-05T16:46:42.709Z,-1.72
2023-03-05T16:49:28.034Z,-1.69
2023-03-05T16:52:18.723Z,-1.66
2023-03-05T16:55:05.294Z,-1.72
2023-03-05T16:57:50.062Z,-1.81
2023-03-05T17:00:35.400Z,-1.91
2023-03-05T17:03:20.018Z,-1.94
2023-03-05T17:06:13.902Z,-1.94
2023-03-05T17:08:59.474Z,-2.06
2023-03-05T17:11:44.482Z,-2.09
2023-03-05T17:14:29.003Z,-2.01
2023-03-05T17:17:14.398Z,-1.99
2023-03-05T17:19:59.384Z,-1.96
2023-03-05T17:22:44.424Z,-2.02
2023-03-05T17:25:30.105Z,-2.01
2023-03-05T17:28:15.113Z,-2.01
2023-03-05T17:31:00.701Z,-1.98
2023-03-05T17:33:45.540Z,-1.98
2023-03-05T17:36:31.750Z,-1.96
2023-03-05T17:39:18.385Z,-1.99
2023-03-05T17:42:03.128Z,-1.96
2023-03-05T17:47:34.926Z,-1.96
2023-03-05T17:50:19.621Z,-1.98
2023-03-05T17:53:04.931Z,-1.96
2023-03-05T17:55:49.817Z,-1.93
2023-03-05T17:58:34.647Z,-1.92
2023-03-05T18:01:25.630Z,-1.92
2023-03-05T18:04:10.940Z,-1.95
2023-03-05T18:06:55.640Z,-1.97
2023-03-05T18:09:40.189Z,-1.97
2023-03-05T18:12:24.714Z,-1.99
2023-03-05T18:15:12.591Z,-2.02
2023-03-05T18:17:58.317Z,-2.05
2023-03-05T18:20:43.795Z,-2.09
2023-03-05T18:23:28.413Z,-2.14
2023-03-05T18:26:13.299Z,-2.17
2023-03-05T18:28:57.660Z,-2.14
2023-03-05T18:31:42.216Z,-2.05
2023-03-05T18:34:27.460Z,-1.96
2023-03-05T18:37:12.113Z,-1.90
2023-03-05T18:39:57.331Z,-1.79
2023-03-05T18:42:42.238Z,-1.76
2023-03-05T18:45:27.807Z,-1.67
2023-03-05T18:48:12.806Z,-1.66
2023-03-05T18:50:57.891Z,-1.63
2023-03-05T18:53:42.763Z,-1.59
2023-03-05T18:56:27.282Z,-1.59
2023-03-05T18:59:12.220Z,-1.57
2023-03-05T19:01:56.731Z,-1.61
2023-03-05T19:04:42.003Z,-1.57
2023-03-05T19:07:26.809Z,-1.56
2023-03-05T19:10:13.701Z,-1.52
2023-03-05T19:13:42.794Z,-1.49
2023-03-05T19:16:33.054Z,-1.47
2023-03-05T19:19:21.614Z,-1.47
2023-03-05T19:22:06.737Z,-1.47
2023-03-05T19:24:53.379Z,-1.45
2023-03-05T19:27:39.035Z,-1.43
2023-03-05T19:30:24.197Z,-1.40
2023-03-05T19:33:08.868Z,-1.39
2023-03-05T19:35:53.827Z,-1.35
2023-03-05T19:38:39.000Z,-1.36
2023-03-05T19:41:25.585Z,-1.38
2023-03-05T19:44:12.214Z,-1.35
2023-03-05T19:46:57.133Z,-1.35
2023-03-05T19:49:41.496Z,-1.33
2023-03-05T19:52:27.207Z,-1.34
2023-03-05T19:55:12.468Z,-1.33
2023-03-05T19:57:57.013Z,-1.32
2023-03-05T20:00:41.602Z,-1.32
2023-03-05T20:03:26.342Z,-1.30
2023-03-05T20:06:11.004Z,-1.28
2023-03-05T20:08:57.303Z,-1.26
2023-03-05T20:11:41.961Z,-1.27
2023-03-05T20:14:27.024Z,-1.29
2023-03-05T20:17:11.613Z,-1.23
2023-03-05T20:19:58.332Z,-1.19
2023-03-05T20:22:45.029Z,-1.13
2023-03-05T20:25:29.993Z,-1.11
2023-03-05T20:28:14.952Z,-1.08
2023-03-05T20:31:00.319Z,-1.04
2023-03-05T20:33:45.146Z,-1.08
2023-03-05T20:36:29.903Z,-1.06
2023-03-05T20:39:14.999Z,-1.02
2023-03-05T20:42:00.203Z,-1.01
2023-03-05T20:44:44.914Z,-1.00
2023-03-05T20:47:45.546Z,-1.00
2023-03-05T20:50:30.151Z,-0.97
2023-03-05T20:53:15.785Z,-0.99
2023-03-05T20:56:00.571Z,-1.01
2023-03-05T20:58:45.637Z,-1.01
2023-03-05T21:01:30.934Z,-1.01
2023-03-05T21:04:15.805Z,-1.07
2023-03-05T21:07:00.587Z,-1.12
2023-03-05T21:09:45.687Z,-1.10
2023-03-05T21:12:33.454Z,-1.11
2023-03-05T21:15:21.033Z,-1.14
2023-03-05T21:18:05.963Z,-1.12
2023-03-05T21:20:50.705Z,-1.12
2023-03-05T21:23:35.591Z,-1.09
2023-03-05T21:26:20.613Z,-1.06
2023-03-05T21:29:05.469Z,-1.06
2023-03-05T21:31:50.335Z,-1.07
2023-03-05T21:34:35.007Z,-1.10
2023-03-05T21:37:19.802Z,-1.13
2023-03-05T21:40:05.120Z,-1.21
2023-03-05T21:42:49.971Z,-1.27
2023-03-05T21:45:34.760Z,-1.29
2023-03-05T21:48:20.489Z,-1.31
2023-03-05T21:51:38.002Z,-1.33
2023-03-05T21:54:28.021Z,-1.38
2023-03-05T21:57:13.494Z,-1.37
2023-03-05T21:59:58.458Z,-1.35
2023-03-05T22:02:43.446Z,-1.36
2023-03-05T22:05:28.276Z,-1.37
2023-03-05T22:08:12.836Z,-1.38
2023-03-05T22:10:57.339Z,-1.44
2023-03-05T22:13:42.292Z,-1.48
2023-03-05T22:16:27.583Z,-1.57
2023-03-05T22:19:12.122Z,-1.65
2023-03-05T22:21:56.973Z,-1.71
2023-03-05T22:24:41.584Z,-1.72
2023-03-05T22:27:26.185Z,-1.77
2023-03-05T22:30:12.498Z,-1.78
2023-03-05T22:32:58.153Z,-1.79
2023-03-05T22:35:43.556Z,-1.76
2023-03-05T22:38:28.807Z,-1.76
2023-03-05T22:41:16.037Z,-1.78
2023-03-05T22:44:01.053Z,-1.82
2023-03-05T22:46:45.962Z,-1.84
2023-03-05T22:49:31.582Z,-1.89
2023-03-05T22:52:16.763Z,-1.93
2023-03-05T22:55:02.768Z,-1.91
2023-03-05T22:57:47.898Z,-1.92
2023-03-05T23:00:32.468Z,-1.90
2023-03-05T23:03:17.140Z,-1.91
2023-03-05T23:06:02.175Z,-1.87
2023-03-05T23:08:47.100Z,-1.84
2023-03-05T23:11:31.724Z,-1.83
2023-03-05T23:14:16.582Z,-1.84
2023-03-05T23:17:01.303Z,-1.84
2023-03-05T23:19:46.271Z,-1.88
2023-03-05T23:22:30.831Z,-1.86
2023-03-05T23:25:15.974Z,-1.87
2023-03-05T23:28:03.112Z,-1.90
2023-03-05T23:30:48.206Z,-1.91
2023-03-05T23:33:33.156Z,-1.95
2023-03-05T23:36:19.311Z,-1.94
2023-03-05T23:39:04.055Z,-1.96
2023-03-05T23:41:48.640Z,-1.94
2023-03-05T23:44:33.481Z,-1.92
2023-03-05T23:47:18.169Z,-1.93
2023-03-05T23:50:05.496Z,-1.93
2023-03-05T23:52:50.875Z,-1.90
2023-03-05T23:55:40.560Z,-1.89
2023-03-05T23:58:25.871Z,-1.91
